Champion, NE (69023)

10:02 AM MDT on July 24, 2016 (GMT -0600)
Imperial Municipal | | Change Station

Elev 3274 ft 40.51 °N, 101.62 °W | Updated 9 minutes ago

Clear
Clear
79 °F
Feels Like 79 °F
N
14
Wind Variable Wind from ENE

Today
High -- | Low -- °F
--% Chance of Precip.
Yesterday
High -- | Low -- °F
Precip. -- in
Pressure 30.04 in
Visibility 10.0 miles
Clouds Clear
Dew Point 53 °F
Humidity 40%
Rainfall 0.00 in
Snow Depth Not available.
5:37 AM 8:09 PM
Waning Gibbous, 75% visible
METAR KIML 241553Z AUTO 07012KT 10SM CLR 26/12 A3014 RMK AO2 SLP170 T02610117
Pressure 30.04 in
Visibility 10.0 miles
Clouds Clear
Dew Point 53 °F
Humidity 40%
Rainfall 0.00 in
Snow Depth Not available.
5:37 AM 8:09 PM
Waning Gibbous, 75% visible
METAR KIML 241553Z AUTO 07012KT 10SM CLR 26/12 A3014 RMK AO2 SLP170 T02610117

10-Day Weather Forecast

Almanac

Astronomy

Jul. 24, 2016 Rise Set
Actual Time
Civil Twilight
Nautical Twilight
Astronomical Twilight
Moon
Length of Visible Light
Length of Day
Tomorrow will be .
, % of the Moon is Illuminated

Today's Extremes

State Highs State Lows

Community

WunderPhotos

Upload Photos

1,927,117 photos uploaded!

WunderBlog® & News

Nearby

Air Quality

  Air Quality AQ Index Pollutant
Not available.

Snow Depth

Station Depth Elevation

Earthquake Activity

City Distance Mag. Time & Date
Minimum magnitude displayed is 2.5.

Coastal Water Temperatures

Place Temperature

Stations

Nearby Weather Stations

Station Location Temp. Windchill Dew Point Humidity Wind Precip. Elev Updated Type
                   

Watches & Warnings

There are currently no watches in effect.